createdAt,value
2023-04-07T00:01:16.756Z,51082.44
2023-04-07T00:03:44.428Z,51050.63
2023-04-07T00:06:11.786Z,51056.59
2023-04-07T00:08:39.451Z,51050.63
2023-04-07T00:11:06.736Z,51066.53
2023-04-07T00:13:33.853Z,51046.66
2023-04-07T00:16:01.021Z,51074.47
2023-04-07T00:18:28.074Z,51076.47
2023-04-07T00:20:55.230Z,51082.44
2023-04-07T00:23:22.391Z,51070.50
2023-04-07T00:25:49.915Z,51054.59
2023-04-07T00:28:17.137Z,51080.44
2023-04-07T00:30:44.502Z,51040.69
2023-04-07T00:33:11.689Z,51060.56
2023-04-07T00:35:38.854Z,51062.56
2023-04-07T00:38:05.925Z,51060.56
2023-04-07T00:40:32.965Z,51062.56
2023-04-07T00:43:00.245Z,51046.66
2023-04-07T00:45:27.303Z,51022.78
2023-04-07T00:47:57.402Z,51052.63
2023-04-07T00:50:24.899Z,51042.66
2023-04-07T00:52:52.204Z,51050.63
2023-04-07T00:55:19.320Z,51052.63
2023-04-07T00:57:46.899Z,51064.53
2023-04-07T01:00:15.526Z,51058.56
2023-04-07T01:02:53.385Z,51030.75
2023-04-07T01:05:37.704Z,51074.47
2023-04-07T01:08:20.594Z,51054.59
2023-04-07T01:11:36.547Z,51066.53
2023-04-07T01:14:06.441Z,51046.66
2023-04-07T01:16:48.365Z,51024.78
2023-04-07T01:20:07.957Z,51058.56
2023-04-07T01:22:55.745Z,51030.75
2023-04-07T01:25:58.487Z,51064.53
2023-04-07T01:29:12.651Z,51038.69
2023-04-07T01:31:41.893Z,51102.31
2023-04-07T01:34:14.363Z,51064.53
2023-04-07T01:36:42.453Z,51046.66
2023-04-07T01:39:11.837Z,51048.63
2023-04-07T01:41:39.732Z,51056.59
2023-04-07T01:44:09.049Z,51050.63
2023-04-07T01:46:36.326Z,51042.66
2023-04-07T01:49:05.101Z,51020.81
2023-04-07T01:51:33.225Z,51070.50
2023-04-07T01:54:02.683Z,51062.56
2023-04-07T01:56:29.869Z,51038.69
2023-04-07T01:58:58.585Z,51036.72
2023-04-07T02:01:26.534Z,51038.69
2023-04-07T02:04:26.357Z,51052.63
2023-04-07T02:07:11.447Z,51030.75
2023-04-07T02:09:44.950Z,51038.69
2023-04-07T02:12:15.017Z,51036.72
2023-04-07T02:14:52.322Z,51020.81
2023-04-07T02:17:19.686Z,51028.75
2023-04-07T02:19:47.857Z,51026.78
2023-04-07T02:22:16.580Z,51028.75
2023-04-07T02:24:43.811Z,51042.66
2023-04-07T02:27:11.377Z,51058.56
2023-04-07T02:29:38.502Z,51030.75
2023-04-07T02:32:06.758Z,51026.78
2023-04-07T02:34:33.991Z,51028.75
2023-04-07T02:37:01.284Z,51024.78
2023-04-07T02:39:28.446Z,51016.84
2023-04-07T02:41:56.232Z,51020.81
2023-04-07T02:44:23.432Z,51032.72
2023-04-07T02:46:50.502Z,51024.78
2023-04-07T02:49:17.790Z,51030.75
2023-04-07T02:51:47.046Z,51036.72
2023-04-07T02:54:14.150Z,51022.78
2023-04-07T02:56:41.303Z,51026.78
2023-04-07T02:59:08.410Z,51036.72
2023-04-07T03:01:40.743Z,51016.84
2023-04-07T03:04:09.298Z,51034.72
2023-04-07T03:06:36.464Z,51044.66
2023-04-07T03:09:15.521Z,51014.84
2023-04-07T03:11:42.798Z,51014.84
2023-04-07T03:14:10.701Z,51034.72
2023-04-07T03:16:47.285Z,51014.84
2023-04-07T03:19:16.476Z,51064.53
2023-04-07T03:21:47.314Z,51034.72
2023-04-07T03:24:14.489Z,51018.81
2023-04-07T03:26:41.883Z,51042.66
2023-04-07T03:29:35.296Z,51034.72
2023-04-07T03:32:03.938Z,51014.84
2023-04-07T03:34:31.131Z,51048.63
2023-04-07T03:36:59.261Z,51050.63
2023-04-07T03:39:27.444Z,51040.69
2023-04-07T03:41:58.616Z,51030.75
2023-04-07T03:44:28.481Z,51020.81
2023-04-07T03:46:56.203Z,51026.78
2023-04-07T03:49:25.054Z,51020.81
2023-04-07T03:51:52.596Z,51030.75
2023-04-07T03:54:20.712Z,51058.56
2023-04-07T03:56:48.032Z,51040.69
2023-04-07T03:59:18.045Z,51020.81
2023-04-07T04:01:53.717Z,51026.78
2023-04-07T04:04:21.129Z,51030.75
2023-04-07T04:06:49.644Z,51026.78
2023-04-07T04:09:40.049Z,51018.81
2023-04-07T04:12:08.167Z,51044.66
2023-04-07T04:14:41.533Z,51048.63
2023-04-07T04:17:10.421Z,51058.56
2023-04-07T04:19:43.119Z,51036.72
2023-04-07T04:22:24.680Z,51068.50
2023-04-07T04:24:55.457Z,51052.63
2023-04-07T04:27:24.628Z,51038.69
2023-04-07T04:29:58.719Z,51030.75
2023-04-07T04:32:37.228Z,51000.94
2023-04-07T04:35:06.917Z,51056.59
2023-04-07T04:37:39.787Z,51022.78
2023-04-07T04:40:11.847Z,51014.84
2023-04-07T04:42:41.295Z,51028.75
2023-04-07T04:45:11.343Z,51022.78
2023-04-07T04:47:44.135Z,51032.72
2023-04-07T04:50:12.079Z,51058.56
2023-04-07T04:52:41.384Z,51022.78
2023-04-07T04:55:16.929Z,51026.78
2023-04-07T04:57:45.431Z,51034.72
2023-04-07T05:00:17.978Z,51064.53
2023-04-07T05:02:48.555Z,51030.75
2023-04-07T05:05:17.388Z,51020.81
2023-04-07T05:07:45.920Z,51000.94
2023-04-07T05:10:14.792Z,51036.72
2023-04-07T05:12:48.262Z,51020.81
2023-04-07T05:15:15.753Z,51048.63
2023-04-07T05:17:50.565Z,51038.69
2023-04-07T05:20:23.319Z,51034.72
2023-04-07T05:22:50.912Z,51044.66
2023-04-07T05:25:20.951Z,51026.78
2023-04-07T05:27:51.866Z,51062.56
2023-04-07T05:30:19.282Z,51028.75
2023-04-07T05:32:46.515Z,51022.78
2023-04-07T05:35:24.198Z,51050.63
2023-04-07T05:37:55.426Z,51040.69
2023-04-07T05:40:22.873Z,51042.66
2023-04-07T05:42:50.929Z,51034.72
2023-04-07T05:45:18.439Z,51038.69
2023-04-07T05:47:50.619Z,51040.69
2023-04-07T05:50:23.287Z,51062.56
2023-04-07T05:52:51.331Z,51038.69
2023-04-07T05:55:23.111Z,51058.56
2023-04-07T05:57:52.013Z,51048.63
2023-04-07T06:00:22.719Z,51046.66
2023-04-07T06:03:02.098Z,51038.69
2023-04-07T06:05:32.994Z,51066.53
2023-04-07T06:08:00.132Z,51046.66
2023-04-07T06:10:28.450Z,51058.56
2023-04-07T06:12:56.205Z,51046.66
2023-04-07T06:15:23.615Z,51068.50
2023-04-07T06:17:50.994Z,51046.66
2023-04-07T06:20:22.974Z,51064.53
2023-04-07T06:22:51.605Z,51052.63
2023-04-07T06:25:18.900Z,51072.50
2023-04-07T06:27:46.194Z,51062.56
2023-04-07T06:30:15.634Z,51070.50
2023-04-07T06:32:42.712Z,51076.47
2023-04-07T06:35:09.930Z,51096.34
2023-04-07T06:37:37.442Z,51086.41
2023-04-07T06:40:05.992Z,51056.59
2023-04-07T06:42:33.136Z,51064.53
2023-04-07T06:45:11.144Z,51082.44
2023-04-07T06:47:38.795Z,51088.41
2023-04-07T06:50:07.127Z,51086.41
2023-04-07T06:52:34.367Z,51086.41
2023-04-07T06:55:01.885Z,51086.41
2023-04-07T06:57:32.017Z,51104.28
2023-04-07T06:59:59.353Z,51092.38
2023-04-07T07:02:26.894Z,51080.44
2023-04-07T07:04:54.437Z,51090.38
2023-04-07T07:07:23.114Z,51094.34
2023-04-07T07:09:50.777Z,51086.41
2023-04-07T07:12:18.807Z,51118.22
2023-04-07T07:14:46.260Z,51094.34
2023-04-07T07:17:14.896Z,51080.44
2023-04-07T07:19:43.038Z,51110.25
2023-04-07T07:22:13.254Z,51098.34
2023-04-07T07:24:42.973Z,51090.38
2023-04-07T07:27:10.995Z,51118.22
2023-04-07T07:29:40.967Z,51082.44
2023-04-07T07:32:13.822Z,51116.22
2023-04-07T07:34:41.600Z,51110.25
2023-04-07T07:37:09.084Z,51086.41
2023-04-07T07:39:36.745Z,51098.34
2023-04-07T07:42:04.489Z,51116.22
2023-04-07T07:44:32.632Z,51090.38
2023-04-07T07:47:02.966Z,51122.19
2023-04-07T07:49:30.873Z,51130.13
2023-04-07T07:51:59.853Z,51108.28
2023-04-07T07:54:28.349Z,51114.25
2023-04-07T07:57:00.295Z,51124.19
2023-04-07T07:59:28.046Z,51120.19
2023-04-07T08:01:55.754Z,51098.34
2023-04-07T08:04:24.238Z,51118.22
2023-04-07T08:06:52.937Z,51142.06
2023-04-07T08:09:23.024Z,51128.16
2023-04-07T08:11:51.617Z,51146.03
2023-04-07T08:14:19.663Z,51126.16
2023-04-07T08:16:47.595Z,51140.09
2023-04-07T08:19:16.569Z,51122.19
2023-04-07T08:21:44.195Z,51120.19
2023-04-07T08:24:14.454Z,51144.06
2023-04-07T08:26:43.562Z,51130.13
2023-04-07T08:29:11.094Z,51142.06
2023-04-07T08:31:48.554Z,51169.91
2023-04-07T08:34:28.086Z,51148.03
2023-04-07T08:36:58.340Z,51154.00
2023-04-07T08:39:25.564Z,51163.94
2023-04-07T08:41:53.980Z,51185.81
2023-04-07T08:44:30.108Z,51199.72
2023-04-07T08:46:59.966Z,51177.84
2023-04-07T08:49:29.742Z,51173.88
2023-04-07T08:51:58.786Z,51193.75
2023-04-07T08:54:28.615Z,51183.81
2023-04-07T08:56:58.892Z,51191.78
2023-04-07T08:59:29.755Z,51173.88
2023-04-07T09:01:57.289Z,51161.94
2023-04-07T09:04:25.189Z,51169.91
2023-04-07T09:06:52.305Z,51181.81
2023-04-07T09:09:19.647Z,51205.69
2023-04-07T09:11:48.944Z,51167.91
2023-04-07T09:14:16.586Z,51197.72
2023-04-07T09:16:43.792Z,51207.66
2023-04-07T09:19:11.127Z,51185.81
2023-04-07T09:21:56.481Z,51201.72
2023-04-07T09:24:29.351Z,51193.75
2023-04-07T09:27:18.758Z,51187.78
2023-04-07T09:29:48.337Z,51161.94
2023-04-07T09:32:44.169Z,51193.75
2023-04-07T09:35:11.636Z,51223.56
2023-04-07T09:37:38.821Z,51213.63
2023-04-07T09:40:07.130Z,51209.66
2023-04-07T09:42:37.274Z,51231.53
2023-04-07T09:45:04.749Z,51209.66
2023-04-07T09:47:33.329Z,51201.72
2023-04-07T09:50:06.800Z,51205.69
2023-04-07T09:52:52.525Z,51201.72
2023-04-07T09:55:24.287Z,51205.69
2023-04-07T09:57:52.313Z,51233.50
2023-04-07T10:00:19.841Z,51221.59
2023-04-07T10:02:48.064Z,51253.41
2023-04-07T10:05:15.774Z,51195.75
2023-04-07T10:07:43.920Z,51209.66
2023-04-07T10:10:11.702Z,51203.69
2023-04-07T10:12:39.089Z,51235.50
2023-04-07T10:15:07.279Z,51225.56
2023-04-07T10:17:36.752Z,51219.59
2023-04-07T10:20:07.781Z,51275.25
2023-04-07T10:22:36.558Z,51233.50
2023-04-07T10:25:14.784Z,51221.59
2023-04-07T10:27:51.758Z,51215.63
2023-04-07T10:30:25.283Z,51243.47
2023-04-07T10:32:54.697Z,51199.72
2023-04-07T10:35:23.189Z,51231.53
2023-04-07T10:38:13.923Z,51235.50
2023-04-07T10:40:43.165Z,51235.50
2023-04-07T10:43:15.081Z,51213.63
2023-04-07T10:45:48.733Z,51209.66
2023-04-07T10:48:18.432Z,51229.53
2023-04-07T10:50:48.496Z,51225.56
2023-04-07T10:53:16.556Z,51247.44
2023-04-07T10:55:58.049Z,51243.47
2023-04-07T10:58:29.328Z,51237.50
2023-04-07T11:01:12.573Z,51237.50
2023-04-07T11:03:43.462Z,51281.22
2023-04-07T11:06:13.869Z,51257.38
2023-04-07T11:08:49.631Z,51259.34
2023-04-07T11:11:41.961Z,51295.16
2023-04-07T11:14:09.818Z,51319.00
2023-04-07T11:16:43.668Z,51241.47
2023-04-07T11:19:15.341Z,51277.25
2023-04-07T11:21:42.662Z,51261.34
2023-04-07T11:24:10.615Z,51259.34
2023-04-07T11:26:40.533Z,51287.19
2023-04-07T11:29:08.335Z,51297.13
2023-04-07T11:31:35.642Z,51340.88
2023-04-07T11:34:05.556Z,51295.16
2023-04-07T11:36:39.394Z,51285.19
2023-04-07T11:39:18.418Z,51317.00
2023-04-07T11:41:50.775Z,51285.19
2023-04-07T11:44:18.016Z,51283.22
2023-04-07T11:46:57.389Z,51305.09
2023-04-07T11:49:29.705Z,51315.03
2023-04-07T11:52:09.381Z,51348.81
2023-04-07T11:54:47.509Z,51368.69
2023-04-07T11:57:14.913Z,51370.69
2023-04-07T11:59:42.366Z,51362.75
2023-04-07T12:02:10.060Z,51392.56
2023-04-07T12:04:40.346Z,51404.50
2023-04-07T12:07:10.142Z,51378.66
2023-04-07T12:09:38.325Z,51410.44
2023-04-07T12:12:08.265Z,51350.81
2023-04-07T12:14:36.638Z,51342.84
2023-04-07T12:17:04.431Z,51364.72
2023-04-07T12:19:36.116Z,51388.59
2023-04-07T12:22:03.930Z,51366.72
2023-04-07T12:24:32.670Z,51360.75
2023-04-07T12:27:00.205Z,51366.72
2023-04-07T12:29:27.997Z,51380.63
2023-04-07T12:31:56.542Z,51336.91
2023-04-07T12:34:23.894Z,51340.88
2023-04-07T12:36:51.699Z,51321.00
2023-04-07T12:39:18.983Z,51352.78
2023-04-07T12:41:47.654Z,51328.94
2023-04-07T12:44:16.143Z,51346.84
2023-04-07T12:46:43.299Z,51340.88
2023-04-07T12:49:10.475Z,51303.09
2023-04-07T12:51:40.052Z,51319.00
2023-04-07T12:54:07.547Z,51344.84
2023-04-07T12:56:37.671Z,51346.84
2023-04-07T12:59:12.558Z,51398.53
2023-04-07T13:01:43.210Z,51322.97
2023-04-07T13:04:11.323Z,51412.44
2023-04-07T13:06:43.145Z,51362.75
2023-04-07T13:09:13.039Z,51422.38
2023-04-07T13:11:43.173Z,51330.94
2023-04-07T13:14:19.564Z,51319.00
2023-04-07T13:16:52.241Z,51322.97
2023-04-07T13:19:19.411Z,51324.97
2023-04-07T13:21:51.075Z,51321.00
2023-04-07T13:24:18.670Z,51322.97
2023-04-07T13:26:54.583Z,51283.22
2023-04-07T13:29:26.058Z,51283.22
2023-04-07T13:31:53.486Z,51277.25
2023-04-07T13:34:22.095Z,51289.19
2023-04-07T13:36:50.962Z,51315.03
2023-04-07T13:39:22.172Z,51297.13
2023-04-07T13:41:49.936Z,51334.91
2023-04-07T13:44:17.129Z,51321.00
2023-04-07T13:46:44.307Z,51332.91
2023-04-07T13:49:15.568Z,51376.66
2023-04-07T13:51:42.638Z,51376.66
2023-04-07T13:54:24.718Z,51352.78
2023-04-07T13:59:54.050Z,51388.59
2023-04-07T14:02:21.631Z,51364.72
2023-04-07T14:04:49.221Z,51356.78
2023-04-07T14:07:17.986Z,51388.59
2023-04-07T14:09:46.455Z,51340.88
2023-04-07T14:12:16.955Z,51330.94
2023-04-07T14:14:46.451Z,51328.94
2023-04-07T14:17:14.455Z,51334.91
2023-04-07T14:19:42.263Z,51340.88
2023-04-07T14:22:19.508Z,51319.00
2023-04-07T14:25:10.219Z,51321.00
2023-04-07T14:27:58.759Z,51330.94
2023-04-07T14:30:26.224Z,51313.03
2023-04-07T14:32:55.894Z,51313.03
2023-04-07T14:35:23.210Z,51297.13
2023-04-07T14:37:56.179Z,51305.09
2023-04-07T14:40:29.299Z,51291.16
2023-04-07T14:45:44.919Z,51305.09
2023-04-07T14:48:17.628Z,51305.09
2023-04-07T14:50:59.212Z,51311.06
2023-04-07T14:53:36.975Z,51307.06
2023-04-07T14:56:10.185Z,51275.25
2023-04-07T14:58:39.106Z,51289.19
2023-04-07T15:01:07.491Z,51251.41
2023-04-07T15:03:38.565Z,51321.00
2023-04-07T15:06:14.133Z,51287.19
2023-04-07T15:08:41.641Z,51247.44
2023-04-07T15:11:09.891Z,51269.31
2023-04-07T15:13:37.626Z,51261.34
2023-04-07T15:16:13.721Z,51257.38
2023-04-07T15:18:48.373Z,51285.19
2023-04-07T15:21:20.677Z,51253.41
2023-04-07T15:23:53.832Z,51263.34
2023-04-07T15:26:24.173Z,51243.47
2023-04-07T15:28:56.833Z,51235.50
2023-04-07T15:31:30.055Z,51227.56
2023-04-07T15:33:57.322Z,51267.31
2023-04-07T15:36:24.377Z,51241.47
2023-04-07T15:38:51.823Z,51245.44
2023-04-07T15:41:18.990Z,51243.47
2023-04-07T15:43:48.660Z,51243.47
2023-04-07T15:46:16.117Z,51233.50
2023-04-07T15:48:43.510Z,51219.59
2023-04-07T15:51:10.931Z,51241.47
2023-04-07T15:53:38.915Z,51225.56
2023-04-07T15:56:11.882Z,51233.50
2023-04-07T15:58:41.539Z,51253.41
2023-04-07T16:01:09.198Z,51229.53
2023-04-07T16:03:37.991Z,51211.66
2023-04-07T16:06:20.796Z,51257.38
2023-04-07T16:08:47.843Z,51225.56
2023-04-07T16:11:16.629Z,51237.50
2023-04-07T16:13:43.683Z,51227.56
2023-04-07T16:16:10.940Z,51213.63
2023-04-07T16:18:41.087Z,51203.69
2023-04-07T16:21:11.551Z,51221.59
2023-04-07T16:23:38.628Z,51191.78
2023-04-07T16:26:08.717Z,51217.59
2023-04-07T16:28:35.948Z,51225.56
2023-04-07T16:31:05.969Z,51231.53
2023-04-07T16:33:33.237Z,51223.56
2023-04-07T16:36:00.614Z,51229.53
2023-04-07T16:38:29.162Z,51221.59
2023-04-07T16:41:03.829Z,51219.59
2023-04-07T16:43:31.714Z,51195.75
2023-04-07T16:46:00.418Z,51233.50
2023-04-07T16:48:27.863Z,51201.72
2023-04-07T16:50:54.994Z,51209.66
2023-04-07T16:53:22.370Z,51181.81
2023-04-07T16:55:49.846Z,51207.66
2023-04-07T16:58:19.110Z,51205.69
2023-04-07T17:00:46.574Z,51203.69
2023-04-07T17:03:16.984Z,51211.66
2023-04-07T17:05:48.363Z,51235.50
2023-04-07T17:08:16.087Z,51217.59
2023-04-07T17:10:43.382Z,51223.56
2023-04-07T17:13:10.660Z,51201.72
2023-04-07T17:15:38.545Z,51177.84
2023-04-07T17:18:06.021Z,51195.75
2023-04-07T17:20:33.188Z,51215.63
2023-04-07T17:23:00.558Z,51187.78
2023-04-07T17:25:27.719Z,51205.69
2023-04-07T17:27:55.246Z,51221.59
2023-04-07T17:30:22.585Z,51179.84
2023-04-07T17:32:53.878Z,51195.75
2023-04-07T17:35:21.523Z,51201.72
2023-04-07T17:37:49.462Z,51213.63
2023-04-07T17:40:16.625Z,51219.59
2023-04-07T17:42:43.768Z,51203.69
2023-04-07T17:45:11.916Z,51217.59
2023-04-07T17:47:39.109Z,51209.66
2023-04-07T17:50:07.256Z,51203.69
2023-04-07T17:52:34.694Z,51189.78
2023-04-07T17:55:02.401Z,51193.75
2023-04-07T17:57:30.027Z,51201.72
2023-04-07T17:59:57.102Z,51173.88
2023-04-07T18:02:24.663Z,51177.84
2023-04-07T18:04:51.962Z,51197.72
2023-04-07T18:07:19.149Z,51201.72
2023-04-07T18:09:52.799Z,51173.88
2023-04-07T18:12:21.630Z,51175.88
2023-04-07T18:14:48.701Z,51203.69
2023-04-07T18:17:16.194Z,51185.81
2023-04-07T18:19:43.319Z,51187.78
2023-04-07T18:22:10.844Z,51189.78
2023-04-07T18:24:41.788Z,51169.91
2023-04-07T18:27:10.180Z,51171.88
2023-04-07T18:29:37.385Z,51209.66
2023-04-07T18:32:04.630Z,51201.72
2023-04-07T18:34:31.715Z,51169.91
2023-04-07T18:36:58.818Z,51177.84
2023-04-07T18:39:28.139Z,51177.84
2023-04-07T18:41:57.576Z,51181.81
2023-04-07T18:44:26.338Z,51195.75
2023-04-07T18:46:53.909Z,51209.66
2023-04-07T18:49:29.135Z,51213.63
2023-04-07T18:51:56.651Z,51161.94
2023-04-07T18:54:24.374Z,51193.75
2023-04-07T18:56:51.642Z,51173.88
2023-04-07T18:59:18.733Z,51173.88
2023-04-07T19:01:46.324Z,51177.84
2023-04-07T19:04:15.189Z,51185.81
2023-04-07T19:06:42.537Z,51197.72
2023-04-07T19:09:10.354Z,51197.72
2023-04-07T19:11:37.628Z,51169.91
2023-04-07T19:14:05.979Z,51179.84
2023-04-07T19:16:34.608Z,51175.88
2023-04-07T19:19:01.885Z,51157.97
2023-04-07T19:21:29.019Z,51173.88
2023-04-07T19:23:56.555Z,51165.91
2023-04-07T19:26:23.834Z,51167.91
2023-04-07T19:28:53.578Z,51159.97
2023-04-07T19:31:28.772Z,51171.88
2023-04-07T19:33:59.359Z,51193.75
2023-04-07T19:36:31.446Z,51193.75
2023-04-07T19:39:01.680Z,51193.75
2023-04-07T19:42:03.329Z,51155.97
2023-04-07T19:44:55.013Z,51150.03
2023-04-07T19:47:23.793Z,51227.56
2023-04-07T19:50:02.258Z,51179.84
2023-04-07T19:52:47.558Z,51189.78
2023-04-07T19:55:15.832Z,51179.84
2023-04-07T19:57:43.375Z,51187.78
2023-04-07T20:00:11.742Z,51203.69
2023-04-07T20:02:48.616Z,51187.78
2023-04-07T20:05:16.363Z,51217.59
2023-04-07T20:07:44.665Z,51175.88
2023-04-07T20:10:11.957Z,51177.84
2023-04-07T20:12:39.176Z,51199.72
2023-04-07T20:15:07.974Z,51193.75
2023-04-07T20:17:48.517Z,51179.84
2023-04-07T20:20:32.505Z,51155.97
2023-04-07T20:22:59.877Z,51163.94
2023-04-07T20:26:06.844Z,51159.97
2023-04-07T20:29:16.785Z,51187.78
2023-04-07T20:31:47.137Z,51171.88
2023-04-07T20:34:42.491Z,51169.91
2023-04-07T20:42:14.396Z,51165.91
2023-04-07T20:45:03.701Z,51169.91
2023-04-07T20:55:15.577Z,51209.66
2023-04-07T20:58:05.270Z,51165.91
2023-04-07T21:00:41.978Z,51201.72
2023-04-07T21:03:09.329Z,51157.97
2023-04-07T21:05:36.702Z,51157.97
2023-04-07T21:08:03.922Z,51183.81
2023-04-07T21:10:31.394Z,51185.81
2023-04-07T21:13:00.127Z,51171.88
2023-04-07T21:15:28.439Z,51154.00
2023-04-07T21:17:55.788Z,51185.81
2023-04-07T21:20:23.085Z,51150.03
2023-04-07T21:22:50.163Z,51173.88
2023-04-07T21:25:17.453Z,51148.03
2023-04-07T21:27:44.605Z,51148.03
2023-04-07T21:30:13.989Z,51154.00
2023-04-07T21:32:41.277Z,51173.88
2023-04-07T21:35:09.116Z,51128.16
2023-04-07T21:37:36.247Z,51171.88
2023-04-07T21:40:03.717Z,51146.03
2023-04-07T21:42:31.006Z,51150.03
2023-04-07T21:44:58.567Z,51181.81
2023-04-07T21:47:25.698Z,51179.84
2023-04-07T21:49:53.382Z,51161.94
2023-04-07T21:52:20.760Z,51150.03
2023-04-07T21:54:47.992Z,51144.06
2023-04-07T21:57:15.182Z,51167.91
2023-04-07T21:59:42.287Z,51173.88
2023-04-07T22:02:09.936Z,51161.94
2023-04-07T22:04:37.445Z,51154.00
2023-04-07T22:07:04.781Z,51219.59
2023-04-07T22:09:31.890Z,51154.00
2023-04-07T22:11:58.945Z,51161.94
2023-04-07T22:14:26.565Z,51171.88
2023-04-07T22:16:53.870Z,51154.00
2023-04-07T22:19:21.556Z,51159.97
2023-04-07T22:21:49.509Z,51165.91
2023-04-07T22:24:16.624Z,51157.97
2023-04-07T22:26:43.755Z,51132.13
2023-04-07T22:29:12.035Z,51165.91
2023-04-07T22:31:39.336Z,51155.97
2023-04-07T22:34:06.607Z,51169.91
2023-04-07T22:36:34.412Z,51187.78
2023-04-07T22:39:01.589Z,51187.78
2023-04-07T22:41:28.749Z,51150.03
2023-04-07T22:43:55.975Z,51142.06
2023-04-07T22:46:23.315Z,51150.03
2023-04-07T22:48:50.903Z,51205.69
2023-04-07T22:51:18.270Z,51144.06
2023-04-07T22:53:45.989Z,51152.00
2023-04-07T22:56:13.263Z,51159.97
2023-04-07T22:58:40.468Z,51152.00
2023-04-07T23:01:07.784Z,51165.91
2023-04-07T23:03:35.101Z,51150.03
2023-04-07T23:06:02.618Z,51187.78
2023-04-07T23:08:29.761Z,51157.97
2023-04-07T23:10:56.884Z,51148.03
2023-04-07T23:13:23.953Z,51181.81
2023-04-07T23:15:51.178Z,51146.03
2023-04-07T23:18:18.228Z,51154.00
2023-04-07T23:20:54.580Z,51173.88
2023-04-07T23:23:22.277Z,51152.00
2023-04-07T23:25:49.362Z,51126.16
2023-04-07T23:28:16.456Z,51173.88
2023-04-07T23:30:43.794Z,51140.09
2023-04-07T23:33:10.848Z,51177.84
2023-04-07T23:35:38.509Z,51130.13
2023-04-07T23:38:08.754Z,51152.00
2023-04-07T23:40:35.879Z,51165.91
2023-04-07T23:43:02.960Z,51154.00
2023-04-07T23:45:30.520Z,51136.09
2023-04-07T23:47:57.703Z,51179.84
2023-04-07T23:50:27.384Z,51167.91
2023-04-07T23:52:55.621Z,51150.03
2023-04-07T23:55:23.244Z,51148.03
2023-04-07T23:57:50.360Z,51201.72
